sensor_id;sensor_type;location;lat;lon;timestamp;pressure;altitude;pressure_sealevel;temperature;humidity
24762;BME280;12865;51.934;10.330;2023-07-31T00:01:23;98651.19;;;16.77;100.00
24762;BME280;12865;51.934;10.330;2023-07-31T00:04:08;98645.56;;;16.72;100.00
24762;BME280;12865;51.934;10.330;2023-07-31T00:06:54;98635.44;;;16.74;100.00
24762;BME280;12865;51.934;10.330;2023-07-31T00:09:40;98637.19;;;16.61;100.00
24762;BME280;12865;51.934;10.330;2023-07-31T00:12:25;98631.88;;;16.67;100.00
24762;BME280;12865;51.934;10.330;2023-07-31T00:15:12;98631.13;;;16.59;100.00
24762;BME280;12865;51.934;10.330;2023-07-31T00:17:58;98627.59;;;16.58;100.00
24762;BME280;12865;51.934;10.330;2023-07-31T00:20:44;98623.88;;;16.59;100.00
24762;BME280;12865;51.934;10.330;2023-07-31T00:23:29;98624.34;;;16.63;100.00
24762;BME280;12865;51.934;10.330;2023-07-31T00:26:15;98614.97;;;16.59;100.00
24762;BME280;12865;51.934;10.330;2023-07-31T00:29:01;98616.75;;;16.66;100.00
24762;BME280;12865;51.934;10.330;2023-07-31T00:31:46;98610.44;;;16.59;100.00
24762;BME280;12865;51.934;10.330;2023-07-31T00:34:32;98606.75;;;16.60;100.00
24762;BME280;12865;51.934;10.330;2023-07-31T00:37:18;98608.47;;;16.68;100.00
24762;BME280;12865;51.934;10.330;2023-07-31T00:40:04;98610.88;;;16.63;100.00
24762;BME280;12865;51.934;10.330;2023-07-31T00:42:49;98596.03;;;16.67;100.00
24762;BME280;12865;51.934;10.330;2023-07-31T00:45:35;98587.91;;;16.60;100.00
24762;BME280;12865;51.934;10.330;2023-07-31T00:48:21;98589.81;;;16.66;100.00
24762;BME280;12865;51.934;10.330;2023-07-31T00:51:07;98594.19;;;16.67;100.00
24762;BME280;12865;51.934;10.330;2023-07-31T00:53:53;98586.22;;;16.59;100.00
24762;BME280;12865;51.934;10.330;2023-07-31T00:56:40;98591.72;;;16.51;100.00
24762;BME280;12865;51.934;10.330;2023-07-31T00:59:26;98597.41;;;16.41;100.00
24762;BME280;12865;51.934;10.330;2023-07-31T01:02:12;98601.56;;;16.23;100.00
24762;BME280;12865;51.934;10.330;2023-07-31T01:04:57;98602.41;;;16.23;100.00
24762;BME280;12865;51.934;10.330;2023-07-31T01:07:52;98605.03;;;16.17;100.00
24762;BME280;12865;51.934;10.330;2023-07-31T01:10:50;98592.28;;;16.04;100.00
24762;BME280;12865;51.934;10.330;2023-07-31T01:13:40;98580.63;;;15.97;100.00
24762;BME280;12865;51.934;10.330;2023-07-31T01:16:27;98580.97;;;15.94;100.00
24762;BME280;12865;51.934;10.330;2023-07-31T01:19:15;98577.28;;;15.95;100.00
24762;BME280;12865;51.934;10.330;2023-07-31T01:22:19;98581.38;;;15.91;100.00
24762;BME280;12865;51.934;10.330;2023-07-31T01:25:21;98574.25;;;15.83;100.00
24762;BME280;12865;51.934;10.330;2023-07-31T01:28:19;98570.16;;;15.87;100.00
24762;BME280;12865;51.934;10.330;2023-07-31T01:31:07;98574.94;;;15.92;100.00
24762;BME280;12865;51.934;10.330;2023-07-31T01:33:59;98569.72;;;15.84;100.00
24762;BME280;12865;51.934;10.330;2023-07-31T01:36:46;98561.34;;;15.79;100.00
24762;BME280;12865;51.934;10.330;2023-07-31T01:39:32;98555.44;;;15.83;100.00
24762;BME280;12865;51.934;10.330;2023-07-31T01:42:17;98552.81;;;15.90;100.00
24762;BME280;12865;51.934;10.330;2023-07-31T01:45:03;98552.25;;;15.94;100.00
24762;BME280;12865;51.934;10.330;2023-07-31T01:47:49;98549.38;;;15.96;100.00
24762;BME280;12865;51.934;10.330;2023-07-31T01:50:35;98539.38;;;15.90;100.00
24762;BME280;12865;51.934;10.330;2023-07-31T01:53:20;98542.13;;;15.96;100.00
24762;BME280;12865;51.934;10.330;2023-07-31T01:56:06;98533.41;;;15.94;100.00
24762;BME280;12865;51.934;10.330;2023-07-31T01:58:52;98531.81;;;16.00;100.00
24762;BME280;12865;51.934;10.330;2023-07-31T02:01:37;98530.47;;;15.89;100.00
24762;BME280;12865;51.934;10.330;2023-07-31T02:04:23;98524.28;;;15.89;100.00
24762;BME280;12865;51.934;10.330;2023-07-31T02:07:08;98521.59;;;15.89;100.00
24762;BME280;12865;51.934;10.330;2023-07-31T02:09:54;98521.75;;;15.87;100.00
24762;BME280;12865;51.934;10.330;2023-07-31T02:12:40;98507.88;;;15.84;100.00
24762;BME280;12865;51.934;10.330;2023-07-31T02:15:25;98509.16;;;15.88;100.00
24762;BME280;12865;51.934;10.330;2023-07-31T02:18:11;98508.97;;;15.89;100.00
24762;BME280;12865;51.934;10.330;2023-07-31T02:20:57;98503.78;;;15.88;100.00
24762;BME280;12865;51.934;10.330;2023-07-31T02:23:42;98504.72;;;15.80;100.00
24762;BME280;12865;51.934;10.330;2023-07-31T02:26:28;98495.34;;;15.91;100.00
24762;BME280;12865;51.934;10.330;2023-07-31T02:29:14;98493.56;;;15.98;100.00
24762;BME280;12865;51.934;10.330;2023-07-31T02:31:59;98493.03;;;15.88;100.00
24762;BME280;12865;51.934;10.330;2023-07-31T02:34:45;98490.88;;;15.77;100.00
24762;BME280;12865;51.934;10.330;2023-07-31T02:37:31;98496.97;;;15.70;100.00
24762;BME280;12865;51.934;10.330;2023-07-31T02:40:16;98480.28;;;15.75;100.00
24762;BME280;12865;51.934;10.330;2023-07-31T02:43:02;98488.66;;;15.65;100.00
24762;BME280;12865;51.934;10.330;2023-07-31T02:45:52;98480.09;;;15.77;100.00
24762;BME280;12865;51.934;10.330;2023-07-31T02:48:38;98465.84;;;15.76;100.00
24762;BME280;12865;51.934;10.330;2023-07-31T02:51:23;98467.03;;;15.74;100.00
24762;BME280;12865;51.934;10.330;2023-07-31T02:54:09;98453.47;;;15.82;100.00
24762;BME280;12865;51.934;10.330;2023-07-31T02:56:54;98455.53;;;15.80;100.00
24762;BME280;12865;51.934;10.330;2023-07-31T02:59:40;98457.84;;;15.83;100.00
24762;BME280;12865;51.934;10.330;2023-07-31T03:02:26;98456.41;;;15.87;100.00
24762;BME280;12865;51.934;10.330;2023-07-31T03:05:12;98455.41;;;15.88;100.00
24762;BME280;12865;51.934;10.330;2023-07-31T03:07:57;98465.50;;;15.86;100.00
24762;BME280;12865;51.934;10.330;2023-07-31T03:10:43;98460.91;;;15.80;100.00
24762;BME280;12865;51.934;10.330;2023-07-31T03:13:29;98463.66;;;15.86;100.00
24762;BME280;12865;51.934;10.330;2023-07-31T03:16:14;98455.59;;;15.86;100.00
24762;BME280;12865;51.934;10.330;2023-07-31T03:19:00;98450.22;;;15.86;100.00
24762;BME280;12865;51.934;10.330;2023-07-31T03:21:45;98449.72;;;15.76;100.00
24762;BME280;12865;51.934;10.330;2023-07-31T03:24:31;98455.28;;;15.75;100.00
24762;BME280;12865;51.934;10.330;2023-07-31T03:27:18;98453.31;;;15.83;100.00
24762;BME280;12865;51.934;10.330;2023-07-31T03:30:04;98467.94;;;15.81;100.00
24762;BME280;12865;51.934;10.330;2023-07-31T03:32:50;98465.25;;;15.81;100.00
24762;BME280;12865;51.934;10.330;2023-07-31T03:35:35;98467.56;;;15.84;100.00
24762;BME280;12865;51.934;10.330;2023-07-31T03:38:21;98467.69;;;15.76;100.00
24762;BME280;12865;51.934;10.330;2023-07-31T03:41:07;98469.59;;;15.82;100.00
24762;BME280;12865;51.934;10.330;2023-07-31T03:43:52;98477.78;;;15.74;100.00
24762;BME280;12865;51.934;10.330;2023-07-31T03:46:38;98476.53;;;15.69;100.00
24762;BME280;12865;51.934;10.330;2023-07-31T03:49:24;98476.13;;;15.73;100.00
24762;BME280;12865;51.934;10.330;2023-07-31T03:52:09;98483.59;;;15.77;100.00
24762;BME280;12865;51.934;10.330;2023-07-31T03:54:55;98479.28;;;15.76;100.00
24762;BME280;12865;51.934;10.330;2023-07-31T03:57:42;98485.66;;;15.75;100.00
24762;BME280;12865;51.934;10.330;2023-07-31T04:00:27;98476.88;;;15.66;100.00
24762;BME280;12865;51.934;10.330;2023-07-31T04:03:13;98475.41;;;15.64;100.00
24762;BME280;12865;51.934;10.330;2023-07-31T04:05:59;98472.28;;;15.60;100.00
24762;BME280;12865;51.934;10.330;2023-07-31T04:08:44;98479.47;;;15.75;100.00
24762;BME280;12865;51.934;10.330;2023-07-31T04:11:30;98481.00;;;15.62;100.00
24762;BME280;12865;51.934;10.330;2023-07-31T04:14:16;98477.91;;;15.51;100.00
24762;BME280;12865;51.934;10.330;2023-07-31T04:17:02;98470.88;;;15.50;100.00
24762;BME280;12865;51.934;10.330;2023-07-31T04:19:48;98482.84;;;15.47;100.00
24762;BME280;12865;51.934;10.330;2023-07-31T04:22:33;98468.56;;;15.47;100.00
24762;BME280;12865;51.934;10.330;2023-07-31T04:25:19;98470.44;;;15.46;100.00
24762;BME280;12865;51.934;10.330;2023-07-31T04:28:05;98474.13;;;15.45;100.00
24762;BME280;12865;51.934;10.330;2023-07-31T04:30:50;98471.25;;;15.47;100.00
24762;BME280;12865;51.934;10.330;2023-07-31T04:33:36;98469.84;;;15.51;100.00
24762;BME280;12865;51.934;10.330;2023-07-31T04:36:22;98472.28;;;15.60;100.00
24762;BME280;12865;51.934;10.330;2023-07-31T04:39:07;98468.75;;;15.60;100.00
24762;BME280;12865;51.934;10.330;2023-07-31T04:41:53;98466.31;;;15.65;100.00
24762;BME280;12865;51.934;10.330;2023-07-31T04:44:39;98471.50;;;15.66;100.00
24762;BME280;12865;51.934;10.330;2023-07-31T04:47:25;98467.81;;;15.67;100.00
24762;BME280;12865;51.934;10.330;2023-07-31T04:50:11;98476.06;;;15.66;100.00
24762;BME280;12865;51.934;10.330;2023-07-31T04:52:56;98468.34;;;15.63;100.00
24762;BME280;12865;51.934;10.330;2023-07-31T04:55:42;98474.19;;;15.66;100.00
24762;BME280;12865;51.934;10.330;2023-07-31T04:58:28;98471.00;;;15.78;100.00
24762;BME280;12865;51.934;10.330;2023-07-31T05:01:13;98475.28;;;15.72;100.00
24762;BME280;12865;51.934;10.330;2023-07-31T05:03:59;98471.53;;;15.88;100.00
24762;BME280;12865;51.934;10.330;2023-07-31T05:06:45;98467.03;;;15.95;100.00
24762;BME280;12865;51.934;10.330;2023-07-31T05:09:30;98468.06;;;15.94;100.00
24762;BME280;12865;51.934;10.330;2023-07-31T05:12:16;98466.81;;;15.90;100.00
24762;BME280;12865;51.934;10.330;2023-07-31T05:15:02;98461.03;;;15.93;100.00
24762;BME280;12865;51.934;10.330;2023-07-31T05:17:47;98447.84;;;15.98;100.00
24762;BME280;12865;51.934;10.330;2023-07-31T05:20:33;98453.84;;;16.00;100.00
24762;BME280;12865;51.934;10.330;2023-07-31T05:23:19;98453.84;;;16.00;100.00
24762;BME280;12865;51.934;10.330;2023-07-31T05:26:05;98439.84;;;16.04;100.00
24762;BME280;12865;51.934;10.330;2023-07-31T05:28:51;98444.13;;;15.99;100.00
24762;BME280;12865;51.934;10.330;2023-07-31T05:31:36;98445.16;;;15.98;100.00
24762;BME280;12865;51.934;10.330;2023-07-31T05:34:23;98445.72;;;15.93;100.00
24762;BME280;12865;51.934;10.330;2023-07-31T05:37:10;98444.28;;;15.91;100.00
24762;BME280;12865;51.934;10.330;2023-07-31T05:39:56;98444.72;;;15.94;100.00
24762;BME280;12865;51.934;10.330;2023-07-31T05:42:42;98444.72;;;15.94;100.00
24762;BME280;12865;51.934;10.330;2023-07-31T05:45:27;98453.91;;;16.06;100.00
24762;BME280;12865;51.934;10.330;2023-07-31T05:48:13;98450.72;;;16.18;100.00
24762;BME280;12865;51.934;10.330;2023-07-31T05:50:59;98435.53;;;16.10;100.00
24762;BME280;12865;51.934;10.330;2023-07-31T05:53:44;98447.50;;;16.07;100.00
24762;BME280;12865;51.934;10.330;2023-07-31T05:56:30;98436.94;;;16.06;100.00
24762;BME280;12865;51.934;10.330;2023-07-31T05:59:17;98439.06;;;16.10;100.00
24762;BME280;12865;51.934;10.330;2023-07-31T06:02:02;98433.47;;;16.12;100.00
24762;BME280;12865;51.934;10.330;2023-07-31T06:04:48;98433.78;;;16.24;100.00
24762;BME280;12865;51.934;10.330;2023-07-31T06:07:34;98444.09;;;16.20;100.00
24762;BME280;12865;51.934;10.330;2023-07-31T06:10:19;98440.88;;;16.31;100.00
24762;BME280;12865;51.934;10.330;2023-07-31T06:13:05;98438.19;;;16.31;100.00
24762;BME280;12865;51.934;10.330;2023-07-31T06:15:51;98435.25;;;16.26;100.00
24762;BME280;12865;51.934;10.330;2023-07-31T06:18:36;98437.59;;;16.36;100.00
24762;BME280;12865;51.934;10.330;2023-07-31T06:21:22;98432.41;;;16.34;100.00
24762;BME280;12865;51.934;10.330;2023-07-31T06:24:08;98426.16;;;16.27;100.00
24762;BME280;12865;51.934;10.330;2023-07-31T06:26:53;98437.22;;;16.39;100.00
24762;BME280;12865;51.934;10.330;2023-07-31T06:29:39;98434.88;;;16.29;100.00
24762;BME280;12865;51.934;10.330;2023-07-31T06:32:25;98423.13;;;16.37;100.00
24762;BME280;12865;51.934;10.330;2023-07-31T06:35:10;98430.41;;;16.43;100.00
24762;BME280;12865;51.934;10.330;2023-07-31T06:37:56;98435.25;;;16.54;100.00
24762;BME280;12865;51.934;10.330;2023-07-31T06:40:42;98429.28;;;16.59;100.00
24762;BME280;12865;51.934;10.330;2023-07-31T06:43:27;98433.56;;;16.46;100.00
24762;BME280;12865;51.934;10.330;2023-07-31T06:46:13;98440.44;;;16.56;100.00
24762;BME280;12865;51.934;10.330;2023-07-31T06:48:59;98442.28;;;16.55;100.00
24762;BME280;12865;51.934;10.330;2023-07-31T06:51:44;98440.16;;;16.44;100.00
24762;BME280;12865;51.934;10.330;2023-07-31T06:54:30;98430.88;;;16.46;100.00
24762;BME280;12865;51.934;10.330;2023-07-31T06:57:16;98429.66;;;16.56;100.00
24762;BME280;12865;51.934;10.330;2023-07-31T07:00:02;98422.16;;;16.72;100.00
24762;BME280;12865;51.934;10.330;2023-07-31T07:02:49;98418.63;;;16.72;100.00
24762;BME280;12865;51.934;10.330;2023-07-31T07:05:35;98427.19;;;16.82;100.00
24762;BME280;12865;51.934;10.330;2023-07-31T07:08:21;98411.28;;;16.94;100.00
24762;BME280;12865;51.934;10.330;2023-07-31T07:11:06;98421.03;;;16.95;100.00
24762;BME280;12865;51.934;10.330;2023-07-31T07:13:52;98408.78;;;16.92;100.00
24762;BME280;12865;51.934;10.330;2023-07-31T07:16:37;98410.03;;;16.96;100.00
24762;BME280;12865;51.934;10.330;2023-07-31T07:19:26;98412.16;;;17.01;100.00
24762;BME280;12865;51.934;10.330;2023-07-31T07:22:11;98404.72;;;17.03;100.00
24762;BME280;12865;51.934;10.330;2023-07-31T07:24:57;98401.59;;;17.06;100.00
24762;BME280;12865;51.934;10.330;2023-07-31T07:27:43;98403.00;;;16.88;100.00
24762;BME280;12865;51.934;10.330;2023-07-31T07:30:28;98410.41;;;16.80;100.00
24762;BME280;12865;51.934;10.330;2023-07-31T07:33:14;98408.19;;;16.97;100.00
24762;BME280;12865;51.934;10.330;2023-07-31T07:36:01;98400.53;;;16.94;100.00
24762;BME280;12865;51.934;10.330;2023-07-31T07:38:47;98403.03;;;17.02;100.00
24762;BME280;12865;51.934;10.330;2023-07-31T07:41:33;98392.50;;;17.13;100.00
24762;BME280;12865;51.934;10.330;2023-07-31T07:44:18;98385.28;;;17.14;100.00
24762;BME280;12865;51.934;10.330;2023-07-31T07:47:04;98387.56;;;17.17;100.00
24762;BME280;12865;51.934;10.330;2023-07-31T07:49:51;98393.22;;;17.42;100.00
24762;BME280;12865;51.934;10.330;2023-07-31T07:52:37;98382.25;;;17.43;100.00
24762;BME280;12865;51.934;10.330;2023-07-31T07:55:22;98383.69;;;17.52;100.00
24762;BME280;12865;51.934;10.330;2023-07-31T07:58:08;98373.22;;;17.71;100.00
24762;BME280;12865;51.934;10.330;2023-07-31T08:00:54;98396.84;;;17.75;100.00
24762;BME280;12865;51.934;10.330;2023-07-31T08:03:39;98390.00;;;17.66;100.00
24762;BME280;12865;51.934;10.330;2023-07-31T08:06:25;98397.28;;;17.72;100.00
24762;BME280;12865;51.934;10.330;2023-07-31T08:09:11;98414.88;;;17.75;100.00
24762;BME280;12865;51.934;10.330;2023-07-31T08:11:56;98402.13;;;17.36;100.00
24762;BME280;12865;51.934;10.330;2023-07-31T08:14:47;98405.63;;;17.23;100.00
24762;BME280;12865;51.934;10.330;2023-07-31T08:17:33;98410.16;;;17.22;100.00
24762;BME280;12865;51.934;10.330;2023-07-31T08:20:18;98405.63;;;17.30;100.00
24762;BME280;12865;51.934;10.330;2023-07-31T08:23:04;98402.97;;;17.36;100.00
24762;BME280;12865;51.934;10.330;2023-07-31T08:25:50;98403.41;;;17.59;100.00
24762;BME280;12865;51.934;10.330;2023-07-31T08:28:36;98404.50;;;17.65;100.00
24762;BME280;12865;51.934;10.330;2023-07-31T08:31:22;98409.03;;;17.58;100.00
24762;BME280;12865;51.934;10.330;2023-07-31T08:34:07;98411.97;;;17.63;100.00
24762;BME280;12865;51.934;10.330;2023-07-31T08:36:53;98416.09;;;17.59;100.00
24762;BME280;12865;51.934;10.330;2023-07-31T08:39:39;98420.69;;;17.72;100.00
24762;BME280;12865;51.934;10.330;2023-07-31T08:42:25;98408.66;;;17.74;100.00
24762;BME280;12865;51.934;10.330;2023-07-31T08:45:17;98403.69;;;17.71;100.00
24762;BME280;12865;51.934;10.330;2023-07-31T08:48:03;98400.19;;;17.90;100.00
24762;BME280;12865;51.934;10.330;2023-07-31T08:50:51;98395.22;;;18.00;100.00
24762;BME280;12865;51.934;10.330;2023-07-31T08:53:37;98389.59;;;18.02;100.00
24762;BME280;12865;51.934;10.330;2023-07-31T08:56:24;98400.41;;;18.15;100.00
24762;BME280;12865;51.934;10.330;2023-07-31T08:59:12;98401.41;;;17.94;100.00
24762;BME280;12865;51.934;10.330;2023-07-31T09:02:04;98398.31;;;18.04;100.00
24762;BME280;12865;51.934;10.330;2023-07-31T09:04:50;98391.47;;;18.15;100.00
24762;BME280;12865;51.934;10.330;2023-07-31T09:07:37;98401.22;;;18.16;100.00
24762;BME280;12865;51.934;10.330;2023-07-31T09:10:23;98397.91;;;18.00;100.00
24762;BME280;12865;51.934;10.330;2023-07-31T09:13:09;98384.63;;;17.92;100.00
24762;BME280;12865;51.934;10.330;2023-07-31T09:15:55;98386.91;;;18.02;100.00
24762;BME280;12865;51.934;10.330;2023-07-31T09:19:07;98382.97;;;17.91;100.00
24762;BME280;12865;51.934;10.330;2023-07-31T09:21:53;98375.28;;;17.88;100.00
24762;BME280;12865;51.934;10.330;2023-07-31T09:24:39;98371.97;;;17.93;100.00
24762;BME280;12865;51.934;10.330;2023-07-31T09:27:24;98373.22;;;17.90;100.00
24762;BME280;12865;51.934;10.330;2023-07-31T09:30:10;98366.59;;;17.99;100.00
24762;BME280;12865;51.934;10.330;2023-07-31T09:33:04;98357.44;;;17.81;100.00
24762;BME280;12865;51.934;10.330;2023-07-31T09:35:51;98335.88;;;17.74;100.00
24762;BME280;12865;51.934;10.330;2023-07-31T09:38:37;98332.97;;;17.76;100.00
24762;BME280;12865;51.934;10.330;2023-07-31T09:41:23;98324.44;;;17.59;100.00
24762;BME280;12865;51.934;10.330;2023-07-31T09:44:08;98332.09;;;17.55;100.00
24762;BME280;12865;51.934;10.330;2023-07-31T09:46:54;98329.03;;;17.65;100.00
24762;BME280;12865;51.934;10.330;2023-07-31T09:49:45;98323.00;;;17.76;100.00
24762;BME280;12865;51.934;10.330;2023-07-31T09:52:31;98328.41;;;17.76;100.00
24762;BME280;12865;51.934;10.330;2023-07-31T09:55:17;98334.22;;;17.99;100.00
24762;BME280;12865;51.934;10.330;2023-07-31T09:58:07;98330.69;;;18.05;100.00
24762;BME280;12865;51.934;10.330;2023-07-31T10:00:53;98324.88;;;18.15;100.00
24762;BME280;12865;51.934;10.330;2023-07-31T10:03:39;98328.16;;;18.24;100.00
24762;BME280;12865;51.934;10.330;2023-07-31T10:06:26;98328.13;;;18.30;100.00
24762;BME280;12865;51.934;10.330;2023-07-31T10:09:14;98332.31;;;18.20;100.00
24762;BME280;12865;51.934;10.330;2023-07-31T10:12:05;98333.13;;;18.33;100.00
24762;BME280;12865;51.934;10.330;2023-07-31T10:14:54;98324.75;;;18.55;100.00
24762;BME280;12865;51.934;10.330;2023-07-31T10:17:40;98325.38;;;18.70;100.00
24762;BME280;12865;51.934;10.330;2023-07-31T10:20:27;98324.84;;;18.93;100.00
24762;BME280;12865;51.934;10.330;2023-07-31T10:23:14;98333.53;;;19.01;100.00
24762;BME280;12865;51.934;10.330;2023-07-31T10:26:02;98324.59;;;19.39;100.00
24762;BME280;12865;51.934;10.330;2023-07-31T10:28:50;98322.91;;;19.44;100.00
24762;BME280;12865;51.934;10.330;2023-07-31T10:31:37;98317.22;;;19.59;100.00
24762;BME280;12865;51.934;10.330;2023-07-31T10:34:24;98326.03;;;19.48;100.00
24762;BME280;12865;51.934;10.330;2023-07-31T10:37:23;98338.19;;;19.64;100.00
24762;BME280;12865;51.934;10.330;2023-07-31T10:40:16;98335.81;;;19.74;100.00
24762;BME280;12865;51.934;10.330;2023-07-31T10:43:02;98330.47;;;19.67;100.00
24762;BME280;12865;51.934;10.330;2023-07-31T10:45:48;98329.44;;;19.68;100.00
24762;BME280;12865;51.934;10.330;2023-07-31T10:48:34;98321.75;;;19.65;100.00
24762;BME280;12865;51.934;10.330;2023-07-31T10:51:22;98316.53;;;19.64;100.00
24762;BME280;12865;51.934;10.330;2023-07-31T10:54:12;98302.44;;;19.86;100.00
24762;BME280;12865;51.934;10.330;2023-07-31T10:56:59;98304.44;;;19.91;100.00
24762;BME280;12865;51.934;10.330;2023-07-31T10:59:45;98304.13;;;20.06;100.00
24762;BME280;12865;51.934;10.330;2023-07-31T11:02:33;98302.78;;;20.15;100.00
24762;BME280;12865;51.934;10.330;2023-07-31T11:05:18;98300.13;;;20.33;100.00
24762;BME280;12865;51.934;10.330;2023-07-31T11:08:28;98290.28;;;20.38;100.00
24762;BME280;12865;51.934;10.330;2023-07-31T11:11:16;98291.72;;;20.59;100.00
24762;BME280;12865;51.934;10.330;2023-07-31T11:14:02;98294.44;;;20.89;99.43
24762;BME280;12865;51.934;10.330;2023-07-31T11:16:51;98294.06;;;21.34;96.92
24762;BME280;12865;51.934;10.330;2023-07-31T11:19:37;98274.91;;;21.47;96.85
24762;BME280;12865;51.934;10.330;2023-07-31T11:22:23;98292.91;;;21.30;95.26
24762;BME280;12865;51.934;10.330;2023-07-31T11:25:09;98284.31;;;21.14;97.98
24762;BME280;12865;51.934;10.330;2023-07-31T11:27:54;98272.03;;;21.30;95.40
24762;BME280;12865;51.934;10.330;2023-07-31T11:30:43;98289.19;;;21.54;95.21
24762;BME280;12865;51.934;10.330;2023-07-31T11:33:30;98266.09;;;21.63;94.09
24762;BME280;12865;51.934;10.330;2023-07-31T11:36:17;98270.19;;;21.66;94.30
24762;BME280;12865;51.934;10.330;2023-07-31T11:39:09;98273.00;;;21.47;93.04
24762;BME280;12865;51.934;10.330;2023-07-31T11:41:59;98269.72;;;21.15;94.74
24762;BME280;12865;51.934;10.330;2023-07-31T11:44:45;98275.53;;;21.19;96.81
24762;BME280;12865;51.934;10.330;2023-07-31T11:47:34;98275.06;;;21.04;96.77
24762;BME280;12865;51.934;10.330;2023-07-31T11:50:20;98282.22;;;20.87;97.10
24762;BME280;12865;51.934;10.330;2023-07-31T11:53:07;98281.97;;;20.88;98.17
24762;BME280;12865;51.934;10.330;2023-07-31T11:55:55;98274.66;;;20.89;98.40
24762;BME280;12865;51.934;10.330;2023-07-31T11:58:43;98280.91;;;20.89;96.64
24762;BME280;12865;51.934;10.330;2023-07-31T12:01:30;98270.06;;;20.89;95.84
24762;BME280;12865;51.934;10.330;2023-07-31T12:04:16;98265.63;;;20.95;95.65
24762;BME280;12865;51.934;10.330;2023-07-31T12:07:02;98269.94;;;20.29;99.84
24762;BME280;12865;51.934;10.330;2023-07-31T12:09:52;98271.28;;;20.75;100.00
24762;BME280;12865;51.934;10.330;2023-07-31T12:12:38;98269.16;;;20.65;100.00
24762;BME280;12865;51.934;10.330;2023-07-31T12:15:44;98270.81;;;20.66;99.97
24762;BME280;12865;51.934;10.330;2023-07-31T12:18:34;98256.56;;;20.71;100.00
24762;BME280;12865;51.934;10.330;2023-07-31T12:21:20;98250.22;;;20.77;99.40
24762;BME280;12865;51.934;10.330;2023-07-31T12:24:06;98250.97;;;20.84;99.57
24762;BME280;12865;51.934;10.330;2023-07-31T12:26:52;98273.34;;;20.80;99.49
24762;BME280;12865;51.934;10.330;2023-07-31T12:29:39;98247.03;;;20.98;100.00
24762;BME280;12865;51.934;10.330;2023-07-31T12:32:25;98260.31;;;20.70;100.00
24762;BME280;12865;51.934;10.330;2023-07-31T12:35:10;98263.28;;;20.98;100.00
24762;BME280;12865;51.934;10.330;2023-07-31T12:37:56;98265.44;;;20.78;98.62
24762;BME280;12865;51.934;10.330;2023-07-31T12:40:44;98249.00;;;20.91;99.65
24762;BME280;12865;51.934;10.330;2023-07-31T12:43:30;98238.28;;;20.96;99.68
24762;BME280;12865;51.934;10.330;2023-07-31T12:46:15;98240.91;;;21.03;98.73
24762;BME280;12865;51.934;10.330;2023-07-31T12:49:02;98234.44;;;21.04;97.02
24762;BME280;12865;51.934;10.330;2023-07-31T12:51:48;98249.53;;;21.30;98.23
24762;BME280;12865;51.934;10.330;2023-07-31T12:54:33;98233.97;;;21.37;96.19
24762;BME280;12865;51.934;10.330;2023-07-31T12:57:21;98232.53;;;21.23;97.26
24762;BME280;12865;51.934;10.330;2023-07-31T13:00:07;98238.25;;;21.14;95.73
24762;BME280;12865;51.934;10.330;2023-07-31T13:02:53;98226.72;;;20.89;97.32
24762;BME280;12865;51.934;10.330;2023-07-31T13:05:39;98229.38;;;21.07;100.00
24762;BME280;12865;51.934;10.330;2023-07-31T13:08:24;98226.34;;;21.15;97.38
24762;BME280;12865;51.934;10.330;2023-07-31T13:11:10;98230.19;;;21.38;97.88
24762;BME280;12865;51.934;10.330;2023-07-31T13:13:55;98239.91;;;21.57;98.30
24762;BME280;12865;51.934;10.330;2023-07-31T13:16:41;98231.16;;;21.13;100.00
24762;BME280;12865;51.934;10.330;2023-07-31T13:19:27;98242.44;;;20.99;100.00
24762;BME280;12865;51.934;10.330;2023-07-31T13:22:13;98258.78;;;20.92;100.00
24762;BME280;12865;51.934;10.330;2023-07-31T13:24:58;98256.38;;;19.93;100.00
24762;BME280;12865;51.934;10.330;2023-07-31T13:27:44;98264.25;;;19.76;100.00
24762;BME280;12865;51.934;10.330;2023-07-31T13:30:30;98258.84;;;19.94;100.00
24762;BME280;12865;51.934;10.330;2023-07-31T13:33:16;98258.50;;;20.09;100.00
24762;BME280;12865;51.934;10.330;2023-07-31T13:36:01;98266.41;;;19.68;100.00
24762;BME280;12865;51.934;10.330;2023-07-31T13:38:47;98268.22;;;19.42;100.00
24762;BME280;12865;51.934;10.330;2023-07-31T13:41:33;98273.50;;;19.31;100.00
24762;BME280;12865;51.934;10.330;2023-07-31T13:44:18;98254.63;;;19.24;100.00
24762;BME280;12865;51.934;10.330;2023-07-31T13:47:04;98264.50;;;19.12;100.00
24762;BME280;12865;51.934;10.330;2023-07-31T13:49:49;98260.84;;;18.93;100.00
24762;BME280;12865;51.934;10.330;2023-07-31T13:52:35;98261.31;;;18.90;100.00
24762;BME280;12865;51.934;10.330;2023-07-31T13:55:21;98266.84;;;19.02;100.00
24762;BME280;12865;51.934;10.330;2023-07-31T13:58:07;98261.44;;;19.02;100.00
24762;BME280;12865;51.934;10.330;2023-07-31T14:00:52;98243.44;;;18.89;100.00
24762;BME280;12865;51.934;10.330;2023-07-31T14:03:38;98253.84;;;18.79;100.00
24762;BME280;12865;51.934;10.330;2023-07-31T14:06:24;98244.09;;;18.85;100.00
24762;BME280;12865;51.934;10.330;2023-07-31T14:09:09;98239.44;;;18.98;100.00
24762;BME280;12865;51.934;10.330;2023-07-31T14:11:55;98232.84;;;18.88;100.00
24762;BME280;12865;51.934;10.330;2023-07-31T14:14:41;98230.50;;;18.53;100.00
24762;BME280;12865;51.934;10.330;2023-07-31T14:17:26;98235.06;;;18.59;100.00
24762;BME280;12865;51.934;10.330;2023-07-31T14:20:12;98238.81;;;18.52;100.00